»·PEaware :: CAX948 KVCV-KSNA

CAX948 :: KVCV-KSNA

FLIGHT INFORMATION

Flight Status: Arrived
Operator:
California Airlines (website)
More flights by this operator :: More flights under this callsign
Pilot: Tony D. (5369)
Aircraft: CESSNA 208 CARAVAN
(C208)
More flights by this aircraft type
Origin: KVCV Socal Logistics
United States
Destination: KSNA John Wayne-Orange Co
United States
More flights between these airports :: More routes between these airports
Route: +APLES V442 PDZ PDZ270 V363 POXKU V8 SLI
File this flight plan on PilotEdge
Remarks: VIA KAPV
Altitude:
(Current/Filed)
6,500ft
Speed:
(Current/Filed)
150kts
Departed: 07-Apr-18 10:05 AM
Arrived: 07-Apr-18 10:54 AM
Distance/Time
Traveled:
60nm/0:49
Distance/Time
To Go:
Arrived

Flight Plot

Page will automatically refresh every two minutes.


Map Options




Map Legend


Flown Route
Filed Route
Departure Airport
Arrival Airport
Navaid (VOR, NDB)
Fix

Horizontal Profiles

Position Reports

Time Latitude Longitude Heading Altitude Ground
Speed
07-Apr-18 09:53 34.588333 -117.376341 313 2877ft 0kts
07-Apr-18 09:54 34.588333 -117.376341 313 2877ft 0kts
07-Apr-18 09:55 34.588333 -117.376341 313 2877ft 0kts
07-Apr-18 09:56 34.588435 -117.376473 312 2877ft 2kts
07-Apr-18 09:57 34.588635 -117.376736 313 2877ft 0kts
07-Apr-18 09:58 34.589128 -117.377042 6 2876ft 7kts
07-Apr-18 09:59 34.591865 -117.374013 44 2869ft 17kts
07-Apr-18 10:00 34.593286 -117.369243 89 2865ft 15kts
07-Apr-18 10:01 34.596267 -117.367288 10 2851ft 13kts
07-Apr-18 10:02 34.598643 -117.366719 10 2850ft 0kts
07-Apr-18 10:03 34.599831 -117.366711 317 2850ft 10kts
07-Apr-18 10:04 34.589786 -117.379093 207 3102ft 97kts
07-Apr-18 10:05 34.566694 -117.384000 129 3991ft 107kts
07-Apr-18 10:06 34.560890 -117.344437 101 4405ft 142kts
07-Apr-18 10:07 34.549403 -117.295752 111 4399ft 155kts
07-Apr-18 10:08 34.538924 -117.244719 101 4398ft 157kts
07-Apr-18 10:09 34.541246 -117.193202 71 3896ft 145kts
07-Apr-18 10:10 34.559019 -117.163038 344 3520ft 86kts
07-Apr-18 10:11 34.569523 -117.181272 267 3067ft 57kts
07-Apr-18 10:12 34.570213 -117.183573 91 3067ft 2kts
07-Apr-18 10:13 34.570211 -117.183490 91 3067ft 0kts
07-Apr-18 10:14 34.570210 -117.181431 90 3067ft 9kts
07-Apr-18 10:15 34.569558 -117.180762 269 3067ft 10kts
07-Apr-18 10:16 34.569232 -117.196498 262 3625ft 54kts
07-Apr-18 10:17 34.547622 -117.201024 188 4503ft 102kts
07-Apr-18 10:18 34.514274 -117.199335 184 5246ft 133kts
07-Apr-18 10:19 34.476522 -117.201979 197 5951ft 138kts
07-Apr-18 10:20 34.439756 -117.215213 206 6510ft 146kts
07-Apr-18 10:21 34.399626 -117.235771 208 6526ft 162kts
07-Apr-18 10:22 34.358547 -117.259516 210 6524ft 159kts
07-Apr-18 10:23 34.320833 -117.282361 211 6526ft 148kts
07-Apr-18 10:24 34.284650 -117.304654 211 6504ft 145kts
07-Apr-18 10:25 34.249579 -117.326125 211 6499ft 138kts
07-Apr-18 10:26 34.215634 -117.347039 212 6499ft 136kts
07-Apr-18 10:27 34.182002 -117.367786 211 6500ft 135kts
07-Apr-18 10:28 34.148390 -117.388326 211 6499ft 136kts
07-Apr-18 10:29 34.114725 -117.409174 212 6499ft 136kts
07-Apr-18 10:30 34.081759 -117.429493 211 6497ft 136kts
07-Apr-18 10:31 34.048316 -117.450063 212 6496ft 133kts
07-Apr-18 10:32 34.011508 -117.473084 210 5688ft 157kts
07-Apr-18 10:33 33.976527 -117.494833 210 4771ft 132kts
07-Apr-18 10:34 33.944939 -117.514375 209 4003ft 116kts
07-Apr-18 10:35 33.917616 -117.531188 221 3999ft 111kts
07-Apr-18 10:36 33.924895 -117.560877 312 4001ft 105kts
07-Apr-18 10:37 33.935830 -117.593662 285 4001ft 107kts
07-Apr-18 10:38 33.942496 -117.628851 286 3998ft 108kts
07-Apr-18 10:39 33.949630 -117.664175 285 4000ft 111kts
07-Apr-18 10:40 33.958047 -117.704093 286 3999ft 128kts
07-Apr-18 10:41 33.967495 -117.745695 287 3999ft 129kts
07-Apr-18 10:42 33.963360 -117.784075 195 4003ft 136kts
07-Apr-18 10:43 33.927805 -117.776041 181 3997ft 135kts
07-Apr-18 10:44 33.892541 -117.764969 161 3993ft 130kts
07-Apr-18 10:45 33.855157 -117.762236 181 3527ft 143kts
07-Apr-18 10:46 33.821030 -117.776595 207 2989ft 109kts
07-Apr-18 10:47 33.794778 -117.792790 208 2603ft 107kts
07-Apr-18 10:48 33.768694 -117.809911 208 2004ft 106kts
07-Apr-18 10:49 33.743198 -117.826927 208 1337ft 107kts
07-Apr-18 10:50 33.717681 -117.843468 206 749ft 99kts
07-Apr-18 10:51 33.696470 -117.855931 206 518ft 86kts
07-Apr-18 10:52 33.677384 -117.867821 207 61ft 41kts
07-Apr-18 10:53 33.675891 -117.870117 232 61ft 4kts
07-Apr-18 10:54 33.675013 -117.871910 215 61ft 7kts
07-Apr-18 10:55 33.674503 -117.872023 167 61ft 0kts

Navigation Log

Ident Type
Flight plan parsing failed, navigation log unavailable